Terminal Aerodrome Forecast
Issued by NWS North Platte, NE

Home | Current Version | Previous Version | Text Only | Print | Product List | Glossary On
Versions: 1 2 3 4 5 6 7 8 9 10 11 12 13 14 15 16 17 18 19 20 21 22 23 24 25 26
000
FTUS43 KLBF 280520
TAFVTN
TAF
KVTN 280520Z 2806/2906 13009KT P6SM SCT110
     FM281100 12007KT P6SM VCSH BKN025
     FM281900 12012KT P6SM -RA OVC020
     FM290000 13010KT P6SM OVC015=

USA.gov is the U.S. government's official web portal to all federal, state and local government web resources and services.